Time;durP1;ratioP1;P1;durP2;ratioP2;P2;SDS_P1;SDS_P2;PMS_P1;PMS_P2;Temp;Humidity;BMP_temperature;BMP_pressure;BME280_temperature;BME280_humidity;BME280_pressure;Samples;Min_cycle;Max_cycle;Signal;HPM_P1;HPM_P2
2023/05/19 00:00:05;;;;;;;1.67;1.43;;;22.60;70.40;;;;;;5093488;28;20440;-79
2023/05/19 00:02:33;;;;;;;1.40;1.30;;;22.60;70.40;;;;;;5093168;28;20443;-79
2023/05/19 00:05:00;;;;;;;1.23;1.00;;;22.70;70.30;;;;;;5093259;28;20434;-79
2023/05/19 00:07:32;;;;;;;1.43;1.00;;;22.60;70.20;;;;;;5093341;28;20446;-79
2023/05/19 00:10:00;;;;;;;1.30;1.10;;;22.60;70.20;;;;;;5093293;28;20483;-79
2023/05/19 00:12:27;;;;;;;1.23;1.00;;;22.60;70.30;;;;;;5073426;28;20445;-80
2023/05/19 00:14:55;;;;;;;1.53;1.20;;;22.60;70.60;;;;;;5072692;28;20468;-80
2023/05/19 00:17:22;;;;;;;1.60;1.30;;;22.60;70.20;;;;;;5074237;28;20433;-80
2023/05/19 00:19:49;;;;;;;2.70;1.07;;;22.60;70.10;;;;;;5077132;28;20448;-80
2023/05/19 00:22:16;;;;;;;1.40;1.10;;;22.60;70.40;;;;;;5076838;28;20443;-80
2023/05/19 00:24:42;;;;;;;1.70;1.13;;;22.60;70.40;;;;;;5079765;28;20701;-80
2023/05/19 00:27:10;;;;;;;2.80;1.27;;;22.60;70.30;;;;;;5097057;28;20442;-80
2023/05/19 00:29:37;;;;;;;1.70;1.10;;;22.60;70.10;;;;;;5097070;28;20484;-80
2023/05/19 00:32:05;;;;;;;1.27;1.10;;;22.60;70.40;;;;;;5096976;28;20463;-80
2023/05/19 00:34:31;;;;;;;2.70;1.10;;;22.60;70.50;;;;;;5095135;28;20441;-80
2023/05/19 00:36:58;;;;;;;1.60;1.07;;;22.60;70.60;;;;;;5096907;28;20438;-80
2023/05/19 00:39:25;;;;;;;1.40;1.10;;;22.50;70.60;;;;;;5078818;28;20438;-80
2023/05/19 00:41:52;;;;;;;1.20;1.10;;;22.60;70.80;;;;;;5076665;28;20443;-80
2023/05/19 00:44:20;;;;;;;1.37;1.10;;;22.50;70.30;;;;;;5076288;28;20454;-85
2023/05/19 00:46:46;;;;;;;2.60;1.47;;;22.50;70.30;;;;;;5076382;28;20934;-81
2023/05/19 00:49:13;;;;;;;1.87;1.40;;;22.60;70.10;;;;;;5076057;28;20473;-80
2023/05/19 00:51:40;;;;;;;1.70;1.10;;;22.50;70.10;;;;;;5076221;28;20560;-79
2023/05/19 00:54:08;;;;;;;1.23;1.00;;;22.50;70.00;;;;;;5090445;28;20438;-80
2023/05/19 00:56:35;;;;;;;2.27;1.57;;;22.50;70.00;;;;;;5076115;28;20449;-80
2023/05/19 00:59:02;;;;;;;1.70;1.00;;;22.70;70.30;;;;;;5076282;28;20465;-80
2023/05/19 01:01:31;;;;;;;1.33;1.00;;;22.50;70.00;;;;;;5076276;28;20448;-80
2023/05/19 01:03:58;;;;;;;1.23;1.00;;;22.50;69.60;;;;;;5075938;28;20438;-80
2023/05/19 01:06:26;;;;;;;1.83;1.10;;;22.50;69.70;;;;;;5092302;28;20439;-80
2023/05/19 01:08:53;;;;;;;2.23;1.27;;;22.50;70.10;;;;;;5096414;28;20489;-80
2023/05/19 01:11:20;;;;;;;1.67;1.23;;;22.50;69.90;;;;;;5096429;28;20442;-80
2023/05/19 01:13:47;;;;;;;1.40;1.10;;;22.50;70.30;;;;;;5096139;28;20457;-80
2023/05/19 01:16:24;;;;;;;2.03;1.50;;;22.50;70.10;;;;;;5079377;28;20449;-79
2023/05/19 01:19:00;;;;;;;1.30;1.13;;;22.50;70.10;;;;;;5075869;28;20532;-79
2023/05/19 01:22:05;;;;;;;1.60;1.10;;;22.50;70.30;;;;;;5075805;28;20438;-80
2023/05/19 01:25:05;;;;;;;1.30;1.20;;;22.50;70.20;;;;;;5044820;28;21090;-79
2023/05/19 01:27:44;;;;;;;1.50;1.40;;;22.50;70.30;;;;;;5070363;28;20456;-79
2023/05/19 01:30:28;;;;;;;1.20;0.90;;;22.50;70.20;;;;;;5075728;28;20491;-79
2023/05/19 01:32:59;;;;;;;1.30;1.10;;;22.60;70.20;;;;;;5084705;28;20536;-79
2023/05/19 01:35:27;;;;;;;1.60;1.10;;;22.40;69.90;;;;;;5095991;28;20438;-79
2023/05/19 01:37:58;;;;;;;2.50;1.50;;;22.40;70.00;;;;;;5095822;28;20437;-79
2023/05/19 01:40:27;;;;;;;1.27;0.90;;;22.50;70.20;;;;;;5095849;28;20778;-79
2023/05/19 01:42:55;;;;;;;1.27;1.10;;;22.50;70.10;;;;;;5095444;28;20439;-79
2023/05/19 01:45:23;;;;;;;1.60;1.00;;;22.50;69.90;;;;;;5095884;28;20446;-79
2023/05/19 01:47:53;;;;;;;1.50;1.10;;;22.40;69.60;;;;;;5095920;28;20439;-79
2023/05/19 01:50:20;;;;;;;1.30;1.20;;;22.40;69.80;;;;;;5095684;28;20492;-79
2023/05/19 01:52:47;;;;;;;1.67;1.10;;;22.40;69.90;;;;;;5095468;28;20532;-79
2023/05/19 01:55:14;;;;;;;1.57;1.17;;;22.50;69.70;;;;;;5095504;28;20453;-79
2023/05/19 01:57:50;;;;;;;1.87;1.20;;;22.60;69.90;;;;;;5095510;28;20444;-80
2023/05/19 02:00:23;;;;;;;1.73;1.20;;;22.50;70.00;;;;;;5082228;28;20788;-86
2023/05/19 02:03:03;;;;;;;3.97;1.23;;;22.40;70.00;;;;;;5075230;28;20447;-79
2023/05/19 02:05:40;;;;;;;1.60;1.07;;;22.40;70.20;;;;;;5085294;28;20448;-79
2023/05/19 02:08:13;;;;;;;1.90;1.10;;;22.40;70.20;;;;;;5095284;28;20437;-79
2023/05/19 02:10:42;;;;;;;1.30;1.20;;;22.40;70.10;;;;;;5095076;28;20490;-85
2023/05/19 02:13:13;;;;;;;1.50;1.00;;;22.40;70.10;;;;;;5094895;28;20493;-79
2023/05/19 02:15:42;;;;;;;1.83;1.00;;;22.40;70.70;;;;;;5095020;28;20448;-80
2023/05/19 02:18:12;;;;;;;1.10;0.90;;;22.40;70.10;;;;;;5095059;28;20477;-80
2023/05/19 02:20:39;;;;;;;1.30;1.00;;;22.40;70.00;;;;;;5095023;28;20448;-86
2023/05/19 02:23:06;;;;;;;1.60;1.03;;;22.40;69.70;;;;;;5094684;28;20444;-79
2023/05/19 02:25:33;;;;;;;1.23;1.03;;;22.40;70.40;;;;;;5094610;28;20506;-79
2023/05/19 02:28:00;;;;;;;1.30;0.97;;;22.40;70.40;;;;;;5076815;28;20449;-79
2023/05/19 02:30:27;;;;;;;1.53;1.10;;;22.40;69.50;;;;;;5074553;28;20485;-85
2023/05/19 02:32:54;;;;;;;1.50;1.13;;;22.30;69.30;;;;;;5074551;28;20442;-80
2023/05/19 02:35:22;;;;;;;1.17;1.00;;;22.30;69.60;;;;;;5074361;28;20443;-79
2023/05/19 02:37:49;;;;;;;1.30;1.00;;;22.30;69.50;;;;;;5074391;28;20441;-79
2023/05/19 02:40:15;;;;;;;1.10;0.97;;;22.40;69.90;;;;;;5073489;28;20457;-79
2023/05/19 02:42:42;;;;;;;1.37;1.13;;;22.30;69.80;;;;;;5074149;28;20455;-79
2023/05/19 02:45:09;;;;;;;1.40;1.00;;;22.30;69.80;;;;;;5074235;28;20461;-79
2023/05/19 02:47:37;;;;;;;1.50;1.20;;;22.30;69.70;;;;;;5074197;28;20793;-79
2023/05/19 02:50:04;;;;;;;1.77;1.30;;;22.30;69.90;;;;;;5073957;28;20490;-79
2023/05/19 02:52:32;;;;;;;1.30;1.10;;;22.30;69.50;;;;;;5073956;28;20446;-79
2023/05/19 02:54:59;;;;;;;1.33;1.00;;;22.30;69.90;;;;;;5080627;28;20440;-79
2023/05/19 02:57:26;;;;;;;1.60;1.10;;;22.30;69.50;;;;;;5094282;28;20507;-79
2023/05/19 02:59:53;;;;;;;1.50;0.97;;;22.30;69.90;;;;;;5094224;28;20489;-79
2023/05/19 03:02:20;;;;;;;1.20;1.07;;;22.30;69.80;;;;;;5094130;28;20492;-79
2023/05/19 03:04:46;;;;;;;1.63;1.30;;;22.30;69.50;;;;;;5094253;28;20442;-79
2023/05/19 03:07:14;;;;;;;1.50;1.40;;;22.30;69.60;;;;;;5093956;28;20436;-79
2023/05/19 03:09:42;;;;;;;1.30;1.03;;;22.30;69.70;;;;;;5094211;28;20824;-79
2023/05/19 03:12:09;;;;;;;1.20;1.10;;;22.30;69.70;;;;;;5094494;28;20438;-79
2023/05/19 03:14:37;;;;;;;1.20;1.00;;;22.30;69.80;;;;;;5093793;28;20466;-79
2023/05/19 03:17:06;;;;;;;1.73;1.40;;;22.30;70.00;;;;;;5094103;28;20441;-79
2023/05/19 03:19:33;;;;;;;1.50;1.00;;;22.30;69.80;;;;;;5094084;28;20995;-79
2023/05/19 03:21:59;;;;;;;1.67;1.00;;;22.30;69.90;;;;;;5093888;28;20442;-79
2023/05/19 03:24:26;;;;;;;1.20;1.00;;;22.30;69.70;;;;;;5093627;28;20481;-79
2023/05/19 03:26:54;;;;;;;1.40;1.00;;;22.20;69.90;;;;;;5092017;28;21064;-79
2023/05/19 03:29:21;;;;;;;1.30;1.00;;;22.20;69.90;;;;;;5093584;28;20476;-79
2023/05/19 03:31:48;;;;;;;1.13;1.03;;;22.30;69.70;;;;;;5093561;28;20950;-79
2023/05/19 03:34:15;;;;;;;1.23;1.10;;;22.20;69.40;;;;;;5093415;28;20448;-79
2023/05/19 03:36:43;;;;;;;1.73;1.20;;;22.20;69.40;;;;;;5093668;28;20448;-80
2023/05/19 03:39:10;;;;;;;1.10;1.00;;;22.30;69.50;;;;;;5093725;28;20784;-80
2023/05/19 03:41:39;;;;;;;1.23;1.03;;;22.20;69.60;;;;;;5093675;28;20531;-86
2023/05/19 03:44:07;;;;;;;1.20;1.10;;;22.20;69.60;;;;;;5092679;28;20498;-79
2023/05/19 03:46:34;;;;;;;1.20;1.10;;;22.20;69.50;;;;;;5073229;28;20466;-79
2023/05/19 03:49:01;;;;;;;1.20;0.93;;;22.20;69.80;;;;;;5073187;28;20434;-79
2023/05/19 03:51:28;;;;;;;1.33;1.00;;;22.20;69.60;;;;;;5073172;28;20940;-80
2023/05/19 03:53:55;;;;;;;1.40;1.30;;;22.20;69.80;;;;;;5072840;28;20456;-80
2023/05/19 03:56:25;;;;;;;1.30;1.10;;;22.20;69.90;;;;;;5092073;28;20524;-80
2023/05/19 03:58:53;;;;;;;1.40;1.30;;;22.20;70.60;;;;;;5093599;28;20448;-80
2023/05/19 04:01:21;;;;;;;1.23;1.00;;;22.20;69.70;;;;;;5093157;28;20476;-80
2023/05/19 04:03:48;;;;;;;1.40;1.30;;;22.20;70.00;;;;;;5093203;28;20433;-80
2023/05/19 04:06:16;;;;;;;1.40;1.10;;;22.20;70.00;;;;;;5093079;28;20451;-80
2023/05/19 04:08:43;;;;;;;1.67;1.07;;;22.20;69.80;;;;;;5087979;28;20443;-80
2023/05/19 04:11:10;;;;;;;1.47;1.00;;;22.20;69.90;;;;;;5072880;28;20486;-80
2023/05/19 04:13:38;;;;;;;1.20;1.10;;;22.20;69.90;;;;;;5072799;28;20475;-80
2023/05/19 04:16:05;;;;;;;1.60;1.50;;;22.20;70.00;;;;;;5073078;28;20439;-80
2023/05/19 04:18:33;;;;;;;1.50;1.03;;;22.20;69.90;;;;;;5072994;28;20443;-80
2023/05/19 04:21:00;;;;;;;1.10;0.93;;;22.20;69.60;;;;;;5072858;28;20446;-80
2023/05/19 04:23:27;;;;;;;1.47;1.23;;;22.30;69.80;;;;;;5083665;28;20437;-79
2023/05/19 04:25:55;;;;;;;1.10;0.90;;;22.20;70.00;;;;;;5092986;28;20445;-80
2023/05/19 04:28:22;;;;;;;1.33;1.23;;;22.20;69.70;;;;;;5093051;28;20937;-80
2023/05/19 04:30:49;;;;;;;1.50;1.17;;;22.30;69.80;;;;;;5092946;28;20577;-79
2023/05/19 04:33:16;;;;;;;2.13;1.93;;;22.20;70.00;;;;;;5092934;28;20449;-80
2023/05/19 04:35:44;;;;;;;3.33;2.97;;;22.20;69.10;;;;;;5078469;28;20560;-80
2023/05/19 04:38:11;;;;;;;4.13;3.43;;;22.10;62.60;;;;;;5072912;28;20436;-80
2023/05/19 04:40:40;;;;;;;5.93;3.20;;;22.00;61.00;;;;;;5072584;28;20434;-81
2023/05/19 04:43:08;;;;;;;9.80;3.97;;;21.80;59.80;;;;;;5078575;28;20466;-80
2023/05/19 04:45:36;;;;;;;4.40;3.77;;;21.70;59.40;;;;;;5092863;28;20445;-80
2023/05/19 04:48:03;;;;;;;6.50;3.67;;;21.60;59.00;;;;;;5092828;28;20520;-80
2023/05/19 04:50:31;;;;;;;5.60;3.73;;;21.50;59.00;;;;;;5089425;28;20486;-80
2023/05/19 04:52:59;;;;;;;9.37;4.07;;;21.40;59.10;;;;;;5072359;28;20445;-80
2023/05/19 04:55:26;;;;;;;3.60;3.30;;;21.30;59.30;;;;;;5085920;28;20444;-80
2023/05/19 04:57:53;;;;;;;3.93;3.47;;;21.30;59.30;;;;;;5092600;28;20795;-80
2023/05/19 05:00:21;;;;;;;5.17;4.20;;;21.20;59.20;;;;;;5092677;28;20440;-80
2023/05/19 05:02:48;;;;;;;6.20;4.07;;;21.20;59.20;;;;;;5091395;28;20433;-80
2023/05/19 05:05:15;;;;;;;8.70;4.47;;;21.20;59.30;;;;;;5096286;28;20470;-80
2023/05/19 05:07:43;;;;;;;5.60;3.80;;;21.10;59.10;;;;;;5096516;28;20441;-83
2023/05/19 05:10:12;;;;;;;10.33;4.00;;;21.10;59.20;;;;;;5096227;28;20471;-80
2023/05/19 05:12:39;;;;;;;11.93;4.20;;;21.00;59.20;;;;;;5096313;28;20442;-85
2023/05/19 05:15:07;;;;;;;10.37;5.23;;;21.00;59.00;;;;;;5095807;28;20432;-80
2023/05/19 05:17:36;;;;;;;11.83;4.70;;;20.90;59.00;;;;;;5096193;28;20438;-80
2023/05/19 05:20:04;;;;;;;5.50;4.00;;;20.80;59.10;;;;;;5094544;28;20448;-79
2023/05/19 05:22:32;;;;;;;12.00;4.30;;;20.80;59.10;;;;;;5093237;28;20573;-80
2023/05/19 05:24:59;;;;;;;5.00;4.50;;;20.70;59.30;;;;;;5094065;28;20463;-79
2023/05/19 05:27:27;;;;;;;8.90;5.40;;;20.70;59.60;;;;;;5094489;28;20434;-79
2023/05/19 05:29:54;;;;;;;5.13;4.40;;;20.60;59.50;;;;;;5093830;28;20550;-79
2023/05/19 05:32:22;;;;;;;17.07;5.20;;;20.50;59.60;;;;;;5075490;28;20443;-79
2023/05/19 05:34:49;;;;;;;21.77;4.60;;;20.50;59.90;;;;;;5075427;28;20443;-79
2023/05/19 05:37:16;;;;;;;13.30;4.57;;;20.50;60.00;;;;;;5075369;28;20449;-79
2023/05/19 05:39:43;;;;;;;8.80;4.40;;;20.60;60.70;;;;;;5075396;28;20447;-82
2023/05/19 05:42:10;;;;;;;3.30;3.00;;;20.70;61.60;;;;;;5075365;28;20430;-80
2023/05/19 05:44:39;;;;;;;4.97;2.80;;;20.80;63.20;;;;;;5095710;28;20494;-79
2023/05/19 05:47:06;;;;;;;5.40;3.83;;;20.90;63.40;;;;;;5095553;28;20427;-79
2023/05/19 05:49:36;;;;;;;3.80;2.97;;;21.00;63.90;;;;;;5096029;28;20447;-79
2023/05/19 05:52:05;;;;;;;5.63;3.27;;;21.10;64.30;;;;;;5088820;28;20433;-80
2023/05/19 05:54:33;;;;;;;6.30;2.90;;;21.20;64.00;;;;;;5097968;28;20440;-83
2023/05/19 05:57:01;;;;;;;5.40;2.60;;;21.30;64.70;;;;;;5098695;28;20444;-83
2023/05/19 05:59:28;;;;;;;3.20;2.60;;;21.40;64.90;;;;;;5096488;28;20440;-78
2023/05/19 06:01:56;;;;;;;8.77;3.10;;;21.40;64.20;;;;;;5077843;28;20464;-79
2023/05/19 06:04:24;;;;;;;10.77;3.87;;;21.50;65.60;;;;;;5074148;28;20801;-79
2023/05/19 06:06:52;;;;;;;5.47;3.63;;;21.50;62.80;;;;;;5077926;28;20541;-79
2023/05/19 06:09:19;;;;;;;6.50;3.90;;;21.40;60.90;;;;;;5111472;28;20944;-82
2023/05/19 06:11:46;;;;;;;5.17;3.40;;;21.30;60.80;;;;;;5110270;28;20484;-79
2023/05/19 06:14:13;;;;;;;6.30;3.33;;;21.40;61.30;;;;;;5092769;28;20820;-79
2023/05/19 06:16:40;;;;;;;8.90;3.43;;;21.30;60.80;;;;;;5093557;28;20472;-78
2023/05/19 06:19:08;;;;;;;12.03;2.87;;;21.40;61.50;;;;;;5094576;28;20521;-79
2023/05/19 06:21:35;;;;;;;10.53;2.90;;;21.40;62.30;;;;;;5094510;28;20447;-79
2023/05/19 06:24:02;;;;;;;4.97;2.73;;;21.50;63.10;;;;;;5100247;28;20466;-79
2023/05/19 06:26:29;;;;;;;5.73;2.50;;;21.50;63.90;;;;;;5114856;28;20451;-79
2023/05/19 06:28:57;;;;;;;5.73;2.97;;;21.50;64.70;;;;;;5114601;28;20440;-79
2023/05/19 06:31:25;;;;;;;3.50;2.70;;;21.60;65.30;;;;;;5105088;28;20488;-79
2023/05/19 06:33:52;;;;;;;4.17;2.30;;;21.50;65.70;;;;;;5084633;28;20477;-79
2023/05/19 06:36:21;;;;;;;5.60;2.63;;;21.60;66.30;;;;;;5076925;28;20452;-79
2023/05/19 06:38:48;;;;;;;6.73;2.30;;;21.60;66.30;;;;;;5097168;28;20864;-78
2023/05/19 06:41:15;;;;;;;2.40;2.10;;;21.70;67.40;;;;;;5115658;28;21152;-79
2023/05/19 06:43:42;;;;;;;4.27;2.97;;;21.70;66.50;;;;;;5100708;28;20561;-81
2023/05/19 06:46:11;;;;;;;18.13;3.67;;;21.70;65.00;;;;;;5084172;28;20933;-80
2023/05/19 06:48:39;;;;;;;3.13;2.63;;;21.70;63.00;;;;;;5076460;28;20457;-80
2023/05/19 06:51:06;;;;;;;4.50;3.13;;;21.70;64.00;;;;;;5075683;28;20485;-82
2023/05/19 06:53:34;;;;;;;5.83;2.70;;;21.70;62.90;;;;;;5089858;28;20869;-86
2023/05/19 06:56:01;;;;;;;9.07;2.87;;;21.70;62.50;;;;;;5091315;28;20439;-79
2023/05/19 06:58:28;;;;;;;6.67;3.00;;;21.80;63.70;;;;;;5096467;28;20469;-86
2023/05/19 07:00:55;;;;;;;3.60;2.57;;;21.80;63.70;;;;;;5095955;28;20505;-84
2023/05/19 07:03:22;;;;;;;4.97;2.97;;;21.70;63.20;;;;;;5085821;28;20445;-79
2023/05/19 07:05:50;;;;;;;6.57;3.20;;;21.80;62.00;;;;;;5075278;28;20805;-79
2023/05/19 07:08:17;;;;;;;2.50;2.10;;;21.80;61.40;;;;;;5076186;28;20477;-78
2023/05/19 07:10:45;;;;;;;5.07;2.53;;;21.80;62.60;;;;;;5090680;28;20571;-80
2023/05/19 07:13:12;;;;;;;3.60;2.50;;;21.80;63.10;;;;;;5093163;28;20549;-86
2023/05/19 07:15:39;;;;;;;12.20;2.90;;;21.80;62.30;;;;;;5093880;28;21022;-80
2023/05/19 07:18:06;;;;;;;4.23;2.43;;;21.80;63.10;;;;;;5093938;28;20498;-87
2023/05/19 07:20:34;;;;;;;4.20;2.57;;;21.80;64.70;;;;;;5093734;28;20536;-82
2023/05/19 07:23:01;;;;;;;2.47;2.03;;;21.90;65.10;;;;;;5093944;28;20790;-80
2023/05/19 07:25:29;;;;;;;3.07;1.87;;;21.90;65.80;;;;;;5092716;28;20472;-86
2023/05/19 07:27:57;;;;;;;5.20;2.00;;;21.90;65.70;;;;;;5093626;28;20477;-80
2023/05/19 07:30:24;;;;;;;3.73;2.70;;;21.90;66.30;;;;;;5093475;28;20491;-80
2023/05/19 07:32:51;;;;;;;3.67;2.07;;;21.90;65.20;;;;;;5093515;28;20440;-86
2023/05/19 07:35:18;;;;;;;2.60;1.83;;;21.90;65.20;;;;;;5093633;28;20970;-79
2023/05/19 07:37:45;;;;;;;5.40;2.80;;;22.00;66.10;;;;;;5093254;28;20487;-79
2023/05/19 07:40:12;;;;;;;4.87;2.63;;;22.00;66.60;;;;;;5093207;28;20481;-79
2023/05/19 07:42:39;;;;;;;10.37;2.07;;;22.00;66.00;;;;;;5093253;28;20979;-79
2023/05/19 07:45:08;;;;;;;4.60;2.07;;;22.00;65.90;;;;;;5093356;28;20441;-79
2023/05/19 07:47:35;;;;;;;4.77;2.03;;;22.00;65.70;;;;;;5093428;28;20532;-79
2023/05/19 07:50:02;;;;;;;2.77;2.10;;;22.00;65.90;;;;;;5093171;28;20536;-79
2023/05/19 07:52:29;;;;;;;2.23;1.97;;;22.00;65.90;;;;;;5093073;28;20502;-81
2023/05/19 07:54:56;;;;;;;4.03;1.90;;;22.00;65.50;;;;;;5092921;28;20485;-81
2023/05/19 07:57:23;;;;;;;3.50;2.00;;;22.00;66.10;;;;;;5093363;28;20465;-90
2023/05/19 07:59:50;;;;;;;3.83;2.20;;;22.10;65.90;;;;;;5093400;28;20865;-83
2023/05/19 08:02:18;;;;;;;3.30;2.17;;;22.10;66.70;;;;;;5087069;28;20430;-88
2023/05/19 08:04:45;;;;;;;3.53;2.10;;;22.10;66.50;;;;;;5091450;28;20441;-82
2023/05/19 08:07:12;;;;;;;2.47;1.70;;;22.10;66.10;;;;;;5093259;28;20561;-83
2023/05/19 08:09:39;;;;;;;3.33;1.93;;;22.10;66.70;;;;;;5093381;28;20524;-84
2023/05/19 08:12:06;;;;;;;2.37;1.77;;;22.10;66.60;;;;;;5092912;28;20568;-83
2023/05/19 08:14:33;;;;;;;2.50;2.00;;;22.10;66.60;;;;;;5092960;28;20443;-84
2023/05/19 08:17:00;;;;;;;2.90;1.70;;;22.20;66.60;;;;;;5074694;28;20446;-83
2023/05/19 08:19:28;;;;;;;3.77;1.63;;;22.20;66.90;;;;;;5074775;28;20442;-83
2023/05/19 08:21:56;;;;;;;1.93;1.77;;;22.20;66.90;;;;;;5072733;28;20446;-83
2023/05/19 08:24:23;;;;;;;3.73;2.00;;;22.20;67.10;;;;;;5072181;28;20486;-83
2023/05/19 08:26:50;;;;;;;2.37;1.53;;;22.20;67.10;;;;;;5071923;28;20446;-83
2023/05/19 08:29:17;;;;;;;2.20;1.53;;;22.30;66.90;;;;;;5071794;28;20435;-82
2023/05/19 08:31:44;;;;;;;5.23;2.43;;;22.30;67.30;;;;;;5071527;28;20583;-88
2023/05/19 08:34:13;;;;;;;3.13;1.83;;;22.30;67.20;;;;;;5071637;28;20449;-83
2023/05/19 08:36:44;;;;;;;2.10;1.83;;;22.30;68.10;;;;;;5071723;28;20446;-83
2023/05/19 08:39:12;;;;;;;1.90;1.50;;;22.40;67.70;;;;;;5057033;28;20449;-82
2023/05/19 08:41:39;;;;;;;2.00;1.80;;;22.40;67.60;;;;;;5075400;28;20553;-86
2023/05/19 08:44:06;;;;;;;5.00;2.27;;;22.40;67.90;;;;;;5075411;28;20451;-82
2023/05/19 08:46:33;;;;;;;2.80;2.10;;;22.50;68.20;;;;;;5075317;28;20437;-83
2023/05/19 08:49:07;;;;;;;2.20;1.80;;;22.50;67.90;;;;;;5075288;28;20810;-83
2023/05/19 08:51:41;;;;;;;1.60;1.50;;;22.50;67.80;;;;;;5081983;28;20493;-84
2023/05/19 08:54:15;;;;;;;2.10;1.30;;;22.50;67.90;;;;;;5086890;28;20437;-83
2023/05/19 08:56:43;;;;;;;2.63;1.43;;;22.50;66.90;;;;;;5087606;28;20525;-82
2023/05/19 08:59:11;;;;;;;2.23;1.03;;;22.50;67.30;;;;;;5103752;28;20433;-82
2023/05/19 09:01:40;;;;;;;2.50;1.23;;;22.50;67.00;;;;;;5075183;28;20450;-83
2023/05/19 09:04:07;;;;;;;1.47;1.17;;;22.50;67.30;;;;;;5075166;28;20436;-83
2023/05/19 09:06:33;;;;;;;2.53;1.40;;;22.50;67.20;;;;;;5075053;28;20440;-81
2023/05/19 09:09:00;;;;;;;3.50;1.30;;;22.50;67.50;;;;;;5075000;28;20447;-81
2023/05/19 09:11:29;;;;;;;1.60;1.50;;;22.50;68.00;;;;;;5078284;28;20474;-82
2023/05/19 09:13:56;;;;;;;1.90;1.47;;;22.50;67.80;;;;;;5074772;28;20881;-82
2023/05/19 09:16:22;;;;;;;2.40;1.77;;;22.50;68.10;;;;;;5074727;28;20530;-81
2023/05/19 09:18:56;;;;;;;3.10;1.40;;;22.50;68.50;;;;;;5075736;28;20455;-81
2023/05/19 09:21:29;;;;;;;3.10;2.13;;;22.50;68.50;;;;;;5074695;28;20446;-81
2023/05/19 09:23:56;;;;;;;3.17;1.40;;;22.60;68.40;;;;;;5023135;28;1500037;-81
2023/05/19 09:26:23;;;;;;;3.00;1.20;;;22.60;67.80;;;;;;5076042;28;20447;-82
2023/05/19 09:28:51;;;;;;;2.23;1.70;;;22.60;67.50;;;;;;5075575;28;20534;-85
2023/05/19 09:31:18;;;;;;;4.60;1.23;;;22.60;67.80;;;;;;5075649;28;20495;-82
2023/05/19 09:33:45;;;;;;;2.40;1.13;;;22.60;67.90;;;;;;5075447;28;20501;-83
2023/05/19 09:36:11;;;;;;;6.70;1.30;;;22.60;67.90;;;;;;5075698;28;20440;-83
2023/05/19 09:38:39;;;;;;;2.40;1.13;;;22.60;67.90;;;;;;5075573;28;20441;-83
2023/05/19 09:41:07;;;;;;;2.10;1.70;;;22.60;67.80;;;;;;5075288;28;20447;-83
2023/05/19 09:43:35;;;;;;;1.70;1.30;;;22.60;67.60;;;;;;5075422;28;20469;-83
2023/05/19 09:46:05;;;;;;;2.73;1.40;;;22.60;67.40;;;;;;5076400;28;20933;-83
2023/05/19 09:48:33;;;;;;;1.40;1.20;;;22.60;68.60;;;;;;5075368;28;20794;-82
2023/05/19 09:51:01;;;;;;;3.63;1.50;;;22.70;68.60;;;;;;5075326;28;20800;-90
2023/05/19 09:53:30;;;;;;;3.90;1.53;;;22.70;68.70;;;;;;5075484;28;20439;-83
2023/05/19 09:55:57;;;;;;;1.37;1.20;;;22.80;68.40;;;;;;5075170;28;20442;-83
2023/05/19 09:58:25;;;;;;;3.53;1.20;;;22.90;68.50;;;;;;5075361;28;20439;-83
2023/05/19 10:00:53;;;;;;;2.30;1.27;;;22.90;68.60;;;;;;5075443;28;20813;-83
2023/05/19 10:03:22;;;;;;;2.07;1.43;;;23.00;68.70;;;;;;5075432;28;20458;-83
2023/05/19 10:05:50;;;;;;;1.73;1.17;;;23.00;68.70;;;;;;5093706;28;20434;-83
2023/05/19 10:08:17;;;;;;;3.40;1.50;;;23.10;68.70;;;;;;5095595;28;20434;-83
2023/05/19 10:10:46;;;;;;;2.43;1.50;;;23.10;68.90;;;;;;5095504;28;20820;-83
2023/05/19 10:13:13;;;;;;;1.50;1.20;;;23.20;68.90;;;;;;5095117;28;20519;-83
2023/05/19 10:15:42;;;;;;;3.00;1.40;;;23.20;68.90;;;;;;5095270;28;20445;-83
2023/05/19 10:18:09;;;;;;;2.90;1.33;;;23.20;68.90;;;;;;5095130;28;20444;-83
2023/05/19 10:20:39;;;;;;;3.10;1.10;;;23.30;68.70;;;;;;5095149;28;20437;-82
2023/05/19 10:23:06;;;;;;;2.07;1.40;;;23.30;69.00;;;;;;5095026;28;20449;-83
2023/05/19 10:25:34;;;;;;;1.40;1.30;;;23.40;69.10;;;;;;5094750;28;20463;-83
2023/05/19 10:28:04;;;;;;;3.23;1.57;;;23.40;69.30;;;;;;5094691;28;20439;-83
2023/05/19 10:30:34;;;;;;;1.33;1.20;;;23.40;69.30;;;;;;5095247;28;20451;-83
2023/05/19 10:33:03;;;;;;;3.53;1.10;;;23.40;69.20;;;;;;5091019;28;20891;-84
2023/05/19 10:35:44;;;;;;;3.00;1.80;;;23.60;69.50;;;;;;5086730;28;20443;-86
2023/05/19 10:38:20;;;;;;;4.20;1.13;;;23.40;68.40;;;;;;5094962;28;20435;-83
2023/05/19 10:40:57;;;;;;;1.90;1.53;;;23.30;69.00;;;;;;5094927;28;20501;-83
2023/05/19 10:43:37;;;;;;;1.30;1.00;;;23.40;69.40;;;;;;5094561;28;20466;-83
2023/05/19 10:46:05;;;;;;;1.60;1.10;;;23.40;69.30;;;;;;5094395;28;20439;-83
2023/05/19 10:48:34;;;;;;;2.03;1.20;;;23.40;68.80;;;;;;5094969;28;20815;-83
2023/05/19 10:51:03;;;;;;;3.97;1.63;;;23.40;69.10;;;;;;5074444;28;20486;-82
2023/05/19 10:53:32;;;;;;;2.47;1.23;;;23.50;68.80;;;;;;5074060;28;20491;-83
2023/05/19 10:56:02;;;;;;;1.60;1.17;;;23.50;68.70;;;;;;5073718;28;20439;-83
2023/05/19 10:58:48;;;;;;;2.13;1.10;;;23.50;68.70;;;;;;5074296;28;20442;-84
2023/05/19 11:01:16;;;;;;;2.13;1.30;;;23.60;68.90;;;;;;5073309;28;20915;-86
2023/05/19 11:03:46;;;;;;;2.90;1.70;;;23.60;68.70;;;;;;5074202;28;20788;-88
2023/05/19 11:06:19;;;;;;;3.10;1.10;;;23.50;68.60;;;;;;5074319;28;20446;-81
2023/05/19 11:08:47;;;;;;;1.63;1.03;;;23.60;69.00;;;;;;5074544;28;20478;-80
2023/05/19 11:11:16;;;;;;;1.87;1.10;;;23.60;69.00;;;;;;5076910;28;20447;-86
2023/05/19 11:13:47;;;;;;;1.40;1.17;;;23.60;69.00;;;;;;5077577;28;20542;-80
2023/05/19 11:16:14;;;;;;;2.40;1.40;;;23.60;69.00;;;;;;5075465;28;20441;-81
2023/05/19 11:18:41;;;;;;;1.57;1.10;;;23.70;69.30;;;;;;5075869;28;20459;-82
2023/05/19 11:21:08;;;;;;;2.07;1.10;;;23.70;69.10;;;;;;5075466;28;20438;-83
2023/05/19 11:23:40;;;;;;;3.20;1.43;;;23.70;68.80;;;;;;5075625;28;20479;-82
2023/05/19 11:26:08;;;;;;;2.90;1.20;;;23.70;68.60;;;;;;5075389;28;20448;-81
2023/05/19 11:28:36;;;;;;;3.00;1.30;;;23.70;68.80;;;;;;5074646;28;20444;-82
2023/05/19 11:31:06;;;;;;;1.93;1.20;;;23.80;69.00;;;;;;5074345;28;20447;-82
2023/05/19 11:33:34;;;;;;;3.40;1.47;;;23.80;68.90;;;;;;5074507;28;20491;-82
2023/05/19 11:36:02;;;;;;;1.70;1.20;;;23.80;68.70;;;;;;5074845;28;20794;-82
2023/05/19 11:38:30;;;;;;;2.47;1.17;;;23.80;68.90;;;;;;5075252;28;20448;-81
2023/05/19 11:40:58;;;;;;;2.00;1.50;;;23.80;68.60;;;;;;5074581;28;20432;-81
2023/05/19 11:43:26;;;;;;;1.60;1.20;;;23.80;68.90;;;;;;5074654;28;20463;-81
2023/05/19 11:45:54;;;;;;;1.67;1.13;;;23.90;68.70;;;;;;5074445;28;20440;-84
2023/05/19 11:48:22;;;;;;;3.80;1.40;;;23.90;68.00;;;;;;5074861;28;20447;-81
2023/05/19 11:50:49;;;;;;;6.83;1.60;;;23.80;68.20;;;;;;5074983;28;20443;-82
2023/05/19 11:53:19;;;;;;;1.70;1.10;;;23.80;68.60;;;;;;5076317;28;20483;-82
2023/05/19 11:55:47;;;;;;;3.30;1.50;;;23.80;68.60;;;;;;5078738;28;20522;-82
2023/05/19 11:58:16;;;;;;;7.43;1.20;;;23.80;68.90;;;;;;5075599;28;20441;-83
2023/05/19 12:00:46;;;;;;;6.10;1.20;;;23.80;69.00;;;;;;5074417;28;20958;-83
2023/05/19 12:03:13;;;;;;;1.50;1.27;;;23.90;69.20;;;;;;5073961;28;20448;-84
2023/05/19 12:05:43;;;;;;;1.50;1.10;;;23.90;68.80;;;;;;5074305;28;20552;-84
2023/05/19 12:08:10;;;;;;;3.37;1.10;;;23.80;68.00;;;;;;5073995;28;21034;-84
2023/05/19 12:10:38;;;;;;;3.63;1.30;;;23.70;67.20;;;;;;5075974;28;20538;-87
2023/05/19 12:13:07;;;;;;;1.93;1.20;;;23.70;68.30;;;;;;5076932;28;20586;-83
2023/05/19 12:15:36;;;;;;;1.30;0.90;;;23.70;68.40;;;;;;5077853;28;20432;-81
2023/05/19 12:18:03;;;;;;;1.67;1.20;;;23.70;68.70;;;;;;5077363;28;20501;-83
2023/05/19 12:20:31;;;;;;;2.10;1.30;;;23.70;69.00;;;;;;5076758;28;20449;-83
2023/05/19 12:22:59;;;;;;;2.43;1.17;;;23.70;68.90;;;;;;5076350;28;20445;-82
2023/05/19 12:25:27;;;;;;;3.10;1.27;;;23.70;68.80;;;;;;5076209;28;20468;-83
2023/05/19 12:27:58;;;;;;;2.80;1.20;;;23.80;68.90;;;;;;5077040;28;20440;-83
2023/05/19 12:30:27;;;;;;;1.53;1.10;;;23.80;68.70;;;;;;5077069;28;20482;-83
2023/05/19 12:32:56;;;;;;;4.73;1.50;;;23.80;68.70;;;;;;5079105;28;20490;-83
2023/05/19 12:35:26;;;;;;;3.37;1.63;;;23.80;68.60;;;;;;5096367;28;20443;-84
2023/05/19 12:37:54;;;;;;;2.13;1.13;;;23.80;66.90;;;;;;5096180;28;20463;-84
2023/05/19 12:40:21;;;;;;;1.13;1.00;;;23.70;66.00;;;;;;5078428;28;20778;-87
2023/05/19 12:42:50;;;;;;;3.50;1.13;;;23.60;66.40;;;;;;5076143;28;20468;-87
2023/05/19 12:45:21;;;;;;;3.40;1.23;;;23.60;66.10;;;;;;5076548;28;20452;-84
2023/05/19 12:47:49;;;;;;;3.13;1.30;;;23.60;66.60;;;;;;5089157;28;20443;-84
2023/05/19 12:50:19;;;;;;;5.10;1.50;;;23.50;66.20;;;;;;5096805;28;20446;-84